Pagrindinis puslapis
METAR-TAF:

METAR-TAF

Oro uostai :

Yurimaguas, Peru

platuma: 05-54S, ilguma: 076-05W, Aukštis: 179 m

Dabartinis oras

Ataskaita buvo paskelbta 3 valandos ir 55 minutes, ne 21:00 UTC
Ramus vėjas
Temperatūra 27°C
Drėgmė 79%
Slėgis 1006 hPa
Matomumas 10 km arba daugiau
Išsisklaidę debesys ne aukštis 1500 ft

METAR: SPMS 282100Z 00000KT 9999 SCT015 27/23 Q1006 RMK BIRD HAZARD RWY 09/27 TX. 27.6 PP000

Laikas: 19:55 (00:55 UTC)

Prognozė

Ataskaita buvo paskelbta 7 valandos ir 55 minutes, ne 17:00 UTC
Prognozė galioja nuo 28 metu 18 UTC su 29 metu 18 UTC
Vėjas 4 kt iš Vakarų/Pietvakarių
Matomumas 10 km arba daugiau
Išsisklaidę debesys ne aukštis 1500 ft
Išsisklaidę debesys ne aukštis 10000 ft
Laikinai
nuo 29 metu 12 UTC su 29 metu 16 UTC
Matomumas: 5000 m
Su prošvaistėmis ne aukštis 800 ft
Su prošvaistėmis ne aukštis 8000 ft
dulksna, lietus

TAF: SPMS 281700Z 2818/2918 25004KT 9999 SCT015 SCT100 TX30/2820Z TN23/2911Z TEMPO 2912/2916 5000 DZRA BKN008 BKN080

Orai ataskaitas ir orų prognozės (METAR, TAF).

turimą stotys yra geltonos ir raudonos taškus žemėlapyje.

Perkelti pele per norėdami pamatyti stoties vardą.

Tada spustelėkite, norėdami matyti oro stebėjimo ir prognozės.

Norėdami pakeisti žemėlapį: spustelėkite ant žalios mygtukų su juodo kryžiaus žemyn,; žalią mygtuką su brūkšneliu, jei norite nutolinti; arba žalių rodyklių gretimoms žemėlapius.


METAR-TAF: